Time;durP1;ratioP1;P1;durP2;ratioP2;P2;SDS_P1;SDS_P2;PMS_P1;PMS_P2;Temp;Humidity;BMP_temperature;BMP_pressure;BME280_temperature;BME280_humidity;BME280_pressure;Samples;Min_cycle;Max_cycle;Signal;HPM_P1;HPM_P2
2024/03/18 00:02:54;;;;;;;1.35;1.05;;;;;;;;;;5864112;28;20056;-70
2024/03/18 00:05:44;;;;;;;1.52;0.98;;;;;;;;;;5863926;28;20045;-70
2024/03/18 00:08:34;;;;;;;1.63;0.82;;;;;;;;;;5863898;28;20053;-70
2024/03/18 00:11:24;;;;;;;3.63;1.13;;;;;;;;;;5847552;28;20045;-70
2024/03/18 00:14:13;;;;;;;0.73;0.73;;;;;;;;;;5863836;28;20379;-70
2024/03/18 00:17:05;;;;;;;2.80;1.55;;;;;;;;;;5847360;28;20053;-71
2024/03/18 00:19:55;;;;;;;1.05;1.00;;;;;;;;;;5832281;28;20108;-70
2024/03/18 00:22:45;;;;;;;1.95;0.60;;;;;;;;;;5863163;28;20061;-70
2024/03/18 00:25:35;;;;;;;2.42;0.95;;;;;;;;;;5863611;28;20037;-71
2024/03/18 00:28:25;;;;;;;1.15;1.08;;;;;;;;;;5847050;28;20057;-70
2024/03/18 00:31:15;;;;;;;1.63;0.68;;;;;;;;;;5863560;28;20060;-71
2024/03/18 00:34:04;;;;;;;1.75;1.23;;;;;;;;;;5847103;28;20045;-71
2024/03/18 00:36:54;;;;;;;0.73;0.73;;;;;;;;;;5847069;28;20059;-70
2024/03/18 00:39:44;;;;;;;0.43;0.43;;;;;;;;;;5863245;28;20041;-70
2024/03/18 00:42:34;;;;;;;0.57;0.57;;;;;;;;;;5846745;28;20444;-70
2024/03/18 00:45:24;;;;;;;0.52;0.40;;;;;;;;;;5863116;28;20044;-68
2024/03/18 00:48:14;;;;;;;0.98;0.52;;;;;;;;;;5846626;28;20050;-70
2024/03/18 00:51:04;;;;;;;0.98;0.82;;;;;;;;;;5846426;28;20081;-70
2024/03/18 00:53:54;;;;;;;0.55;0.55;;;;;;;;;;5847030;28;20061;-70
2024/03/18 00:56:43;;;;;;;0.35;0.35;;;;;;;;;;5846415;28;20080;-70
2024/03/18 00:59:33;;;;;;;0.45;0.45;;;;;;;;;;5846252;28;20057;-70
2024/03/18 01:02:23;;;;;;;0.88;0.73;;;;;;;;;;5850919;28;20042;-70
2024/03/18 01:05:14;;;;;;;0.70;0.70;;;;;;;;;;5857989;28;20060;-70
2024/03/18 01:08:03;;;;;;;0.80;0.52;;;;;;;;;;5862748;28;20103;-71
2024/03/18 01:10:53;;;;;;;0.52;0.50;;;;;;;;;;5862912;28;20050;-70
2024/03/18 01:13:47;;;;;;;0.40;0.40;;;;;;;;;;5862673;28;20037;-71
2024/03/18 01:16:36;;;;;;;0.43;0.40;;;;;;;;;;5862455;28;20064;-71
2024/03/18 01:19:26;;;;;;;1.08;0.68;;;;;;;;;;5862347;28;20045;-71
2024/03/18 01:22:16;;;;;;;0.60;0.60;;;;;;;;;;5862468;28;20049;-71
2024/03/18 01:25:06;;;;;;;0.30;0.30;;;;;;;;;;5862455;28;20507;-71
2024/03/18 01:28:00;;;;;;;0.30;0.30;;;;;;;;;;5862879;28;20041;-70
2024/03/18 01:30:51;;;;;;;0.45;0.45;;;;;;;;;;5839506;28;20100;-71
2024/03/18 01:33:40;;;;;;;1.10;0.60;;;;;;;;;;5839228;28;20061;-71
2024/03/18 01:36:32;;;;;;;0.55;0.45;;;;;;;;;;5838959;28;20038;-70
2024/03/18 01:39:22;;;;;;;1.00;0.93;;;;;;;;;;5838934;28;20042;-71
2024/03/18 01:42:13;;;;;;;3.25;1.55;;;;;;;;;;5838866;28;20049;-71
2024/03/18 01:45:03;;;;;;;0.85;0.70;;;;;;;;;;5838857;28;20057;-71
2024/03/18 01:47:54;;;;;;;0.95;0.88;;;;;;;;;;5855498;28;20049;-71
2024/03/18 01:50:45;;;;;;;0.80;0.80;;;;;;;;;;5838819;28;20042;-71
2024/03/18 01:53:36;;;;;;;1.30;0.80;;;;;;;;;;5838865;28;20496;-71
2024/03/18 01:56:25;;;;;;;2.88;1.45;;;;;;;;;;5838761;28;20054;-71
2024/03/18 01:59:15;;;;;;;1.75;1.30;;;;;;;;;;5838585;28;20054;-71
2024/03/18 02:02:06;;;;;;;0.57;0.57;;;;;;;;;;5822548;28;20057;-71
2024/03/18 02:04:55;;;;;;;0.40;0.40;;;;;;;;;;5838964;28;20064;-71
2024/03/18 02:07:45;;;;;;;2.35;1.25;;;;;;;;;;5838274;28;20050;-71
2024/03/18 02:10:35;;;;;;;0.50;0.50;;;;;;;;;;5838273;28;20451;-71
2024/03/18 02:13:25;;;;;;;1.50;1.40;;;;;;;;;;5838590;28;20105;-71
2024/03/18 02:16:15;;;;;;;0.60;0.60;;;;;;;;;;5821784;28;20057;-71
2024/03/18 02:19:05;;;;;;;0.60;0.60;;;;;;;;;;5838080;28;20104;-71
2024/03/18 02:21:54;;;;;;;0.47;0.47;;;;;;;;;;5838833;28;20049;-71
2024/03/18 02:24:44;;;;;;;1.17;0.90;;;;;;;;;;5821903;28;20137;-70
2024/03/18 02:27:34;;;;;;;0.43;0.43;;;;;;;;;;5838308;28;20041;-71
2024/03/18 02:30:24;;;;;;;1.23;0.77;;;;;;;;;;5838073;28;20049;-71
2024/03/18 02:33:13;;;;;;;5.38;1.15;;;;;;;;;;5838006;28;20049;-71
2024/03/18 02:36:04;;;;;;;1.08;0.65;;;;;;;;;;5838143;28;20623;-71
2024/03/18 02:38:56;;;;;;;0.35;0.35;;;;;;;;;;5838198;28;20492;-70
2024/03/18 02:41:46;;;;;;;0.75;0.63;;;;;;;;;;5822096;28;20572;-71
2024/03/18 02:44:36;;;;;;;0.50;0.50;;;;;;;;;;5837805;28;20069;-71
2024/03/18 02:47:26;;;;;;;0.95;0.95;;;;;;;;;;5837957;28;20042;-71
2024/03/18 02:50:18;;;;;;;0.68;0.68;;;;;;;;;;5837838;28;20042;-70
2024/03/18 02:53:09;;;;;;;0.73;0.47;;;;;;;;;;5838121;28;20041;-71
2024/03/18 02:55:59;;;;;;;0.45;0.45;;;;;;;;;;5838316;28;20539;-70
2024/03/18 02:58:49;;;;;;;0.85;0.85;;;;;;;;;;5837743;28;20072;-70
2024/03/18 03:01:39;;;;;;;2.75;0.85;;;;;;;;;;5837919;28;20045;-71
2024/03/18 03:04:29;;;;;;;0.32;0.32;;;;;;;;;;5837827;28;20042;-70
2024/03/18 03:07:20;;;;;;;0.30;0.30;;;;;;;;;;5837919;28;20447;-71
2024/03/18 03:10:10;;;;;;;0.98;0.77;;;;;;;;;;5837889;28;20050;-71
2024/03/18 03:13:00;;;;;;;0.63;0.63;;;;;;;;;;5838273;28;20086;-70
2024/03/18 03:15:50;;;;;;;0.80;0.80;;;;;;;;;;5837738;28;20139;-71
2024/03/18 03:18:40;;;;;;;0.47;0.47;;;;;;;;;;5821197;28;20099;-70
2024/03/18 03:21:29;;;;;;;0.63;0.63;;;;;;;;;;5824619;28;20041;-71
2024/03/18 03:24:19;;;;;;;0.60;0.60;;;;;;;;;;5842028;28;20045;-71
2024/03/18 03:27:09;;;;;;;0.57;0.57;;;;;;;;;;5825284;28;20046;-71
2024/03/18 03:29:59;;;;;;;1.17;0.68;;;;;;;;;;5842441;28;20046;-70
2024/03/18 03:32:48;;;;;;;1.08;0.73;;;;;;;;;;5841636;28;20053;-71
2024/03/18 03:35:38;;;;;;;1.17;0.95;;;;;;;;;;5841662;28;20053;-70
2024/03/18 03:38:28;;;;;;;2.05;1.38;;;;;;;;;;5841354;28;20504;-71
2024/03/18 03:41:18;;;;;;;0.75;0.75;;;;;;;;;;5841623;28;20046;-71
2024/03/18 03:44:08;;;;;;;1.92;1.08;;;;;;;;;;5841431;28;20104;-71
2024/03/18 03:46:58;;;;;;;0.60;0.60;;;;;;;;;;5825648;28;20132;-70
2024/03/18 03:49:47;;;;;;;0.88;0.80;;;;;;;;;;5825265;28;20119;-70
2024/03/18 03:52:37;;;;;;;6.97;1.88;;;;;;;;;;5825211;28;20073;-71
2024/03/18 03:55:27;;;;;;;0.90;0.80;;;;;;;;;;5841583;28;20053;-71
2024/03/18 03:58:17;;;;;;;2.72;1.10;;;;;;;;;;5841186;28;20049;-71
2024/03/18 04:01:10;;;;;;;1.38;1.27;;;;;;;;;;5841248;28;20119;-71
2024/03/18 04:04:00;;;;;;;1.10;1.00;;;;;;;;;;5825918;28;20053;-71
2024/03/18 04:06:50;;;;;;;0.70;0.70;;;;;;;;;;5833126;28;20042;-71
2024/03/18 04:09:40;;;;;;;0.40;0.40;;;;;;;;;;5879302;28;20041;-71
2024/03/18 04:12:30;;;;;;;0.50;0.50;;;;;;;;;;5863958;28;20045;-71
2024/03/18 04:15:20;;;;;;;0.50;0.50;;;;;;;;;;5864133;28;20053;-71
2024/03/18 04:18:10;;;;;;;1.30;0.85;;;;;;;;;;5846003;28;20041;-71
2024/03/18 04:21:01;;;;;;;1.33;0.98;;;;;;;;;;5862102;28;20042;-71
2024/03/18 04:23:51;;;;;;;1.00;0.73;;;;;;;;;;5861763;28;20045;-71
2024/03/18 04:26:42;;;;;;;1.58;0.95;;;;;;;;;;5861495;28;20056;-71
2024/03/18 04:29:32;;;;;;;0.45;0.45;;;;;;;;;;5861226;28;20045;-70
2024/03/18 04:32:22;;;;;;;0.55;0.55;;;;;;;;;;5844595;28;20384;-71
2024/03/18 04:35:12;;;;;;;1.95;1.55;;;;;;;;;;5861406;28;20120;-71
2024/03/18 04:38:03;;;;;;;0.85;0.70;;;;;;;;;;5862742;28;20042;-71
2024/03/18 04:40:53;;;;;;;1.17;1.08;;;;;;;;;;5863853;28;20068;-71
2024/03/18 04:43:43;;;;;;;1.00;0.93;;;;;;;;;;5863135;28;20456;-71
2024/03/18 04:46:33;;;;;;;0.70;0.70;;;;;;;;;;5846909;28;20111;-71
2024/03/18 04:49:22;;;;;;;0.85;0.85;;;;;;;;;;5863142;28;20107;-71
2024/03/18 04:52:12;;;;;;;1.30;1.20;;;;;;;;;;5863135;28;20045;-71
2024/03/18 04:55:07;;;;;;;0.77;0.77;;;;;;;;;;5846737;28;20458;-71
2024/03/18 04:57:58;;;;;;;4.60;1.55;;;;;;;;;;5863432;28;20049;-71
2024/03/18 05:00:50;;;;;;;3.33;1.02;;;;;;;;;;5846475;28;20041;-71
2024/03/18 05:03:40;;;;;;;0.93;0.93;;;;;;;;;;5862768;28;20038;-71
2024/03/18 05:06:30;;;;;;;1.30;0.88;;;;;;;;;;5862723;28;20041;-71
2024/03/18 05:09:20;;;;;;;1.25;1.15;;;;;;;;;;5862901;28;20045;-71
2024/03/18 05:12:10;;;;;;;0.82;0.80;;;;;;;;;;5862756;28;20401;-71
2024/03/18 05:15:01;;;;;;;3.63;1.50;;;;;;;;;;5863250;28;20048;-71
2024/03/18 05:17:50;;;;;;;2.60;1.40;;;;;;;;;;5862880;28;20042;-71
2024/03/18 05:20:40;;;;;;;1.42;1.10;;;;;;;;;;5862463;28;20060;-71
2024/03/18 05:23:30;;;;;;;8.45;2.40;;;;;;;;;;5846134;28;20037;-71
2024/03/18 05:26:21;;;;;;;4.63;1.40;;;;;;;;;;5862619;28;20057;-71
2024/03/18 05:29:11;;;;;;;3.40;1.77;;;;;;;;;;5862745;28;20042;-71
2024/03/18 05:32:09;;;;;;;1.52;1.42;;;;;;;;;;5862522;28;20503;-72
2024/03/18 05:34:59;;;;;;;1.10;1.00;;;;;;;;;;5863029;28;20054;-71
2024/03/18 05:37:49;;;;;;;3.05;1.48;;;;;;;;;;5861916;28;20055;-71
2024/03/18 05:40:39;;;;;;;3.25;1.38;;;;;;;;;;5845756;28;20071;-71
2024/03/18 05:43:29;;;;;;;3.35;0.95;;;;;;;;;;5861440;28;20617;-72
2024/03/18 05:46:18;;;;;;;1.00;0.90;;;;;;;;;;5856667;28;20122;-74
2024/03/18 05:49:09;;;;;;;1.15;1.05;;;;;;;;;;5862355;28;20056;-71
2024/03/18 05:51:59;;;;;;;0.45;0.45;;;;;;;;;;5862831;28;20053;-71
2024/03/18 05:54:48;;;;;;;16.20;1.58;;;;;;;;;;5862241;28;20095;-72
2024/03/18 05:57:39;;;;;;;3.80;1.75;;;;;;;;;;5861897;28;20049;-71
2024/03/18 06:00:30;;;;;;;1.15;1.05;;;;;;;;;;5861800;28;20045;-71
2024/03/18 06:03:20;;;;;;;0.35;0.35;;;;;;;;;;5861700;28;20053;-72
2024/03/18 06:06:10;;;;;;;1.05;0.93;;;;;;;;;;5861959;28;20506;-71
2024/03/18 06:09:02;;;;;;;4.05;2.20;;;;;;;;;;5862083;28;20127;-72
2024/03/18 06:11:52;;;;;;;15.90;1.88;;;;;;;;;;5845390;28;20588;-71
2024/03/18 06:14:42;;;;;;;1.60;1.10;;;;;;;;;;5861617;28;20393;-71
2024/03/18 06:17:32;;;;;;;0.95;0.95;;;;;;;;;;5861385;28;20047;-71
2024/03/18 06:20:22;;;;;;;1.67;0.85;;;;;;;;;;5861311;28;20053;-71
2024/03/18 06:23:11;;;;;;;4.97;0.70;;;;;;;;;;5861535;28;20067;-72
2024/03/18 06:26:03;;;;;;;1.10;1.02;;;;;;;;;;5861205;28;20049;-72
2024/03/18 06:28:53;;;;;;;0.80;0.70;;;;;;;;;;5861834;28;20045;-70
2024/03/18 06:31:42;;;;;;;0.82;0.82;;;;;;;;;;5861103;28;20459;-71
2024/03/18 06:34:32;;;;;;;0.57;0.57;;;;;;;;;;5861233;28;20045;-71
2024/03/18 06:37:22;;;;;;;2.08;1.58;;;;;;;;;;5860978;28;20466;-72
2024/03/18 06:40:12;;;;;;;1.85;1.25;;;;;;;;;;5861147;28;20053;-71
2024/03/18 06:43:02;;;;;;;0.68;0.68;;;;;;;;;;5861130;28;20065;-71
2024/03/18 06:45:52;;;;;;;0.88;0.88;;;;;;;;;;5861579;28;20783;-71
2024/03/18 06:48:43;;;;;;;1.38;1.25;;;;;;;;;;5860544;28;20111;-71
2024/03/18 06:51:32;;;;;;;0.82;0.70;;;;;;;;;;5861046;28;20045;-71
2024/03/18 06:54:22;;;;;;;0.93;0.93;;;;;;;;;;5862757;28;20462;-71
2024/03/18 06:57:13;;;;;;;0.47;0.40;;;;;;;;;;5865584;28;20049;-71
2024/03/18 07:00:06;;;;;;;2.03;1.33;;;;;;;;;;5849155;28;20042;-71
2024/03/18 07:02:56;;;;;;;0.55;0.47;;;;;;;;;;5866066;28;20404;-71
2024/03/18 07:05:45;;;;;;;0.82;0.77;;;;;;;;;;5865683;28;20072;-71
2024/03/18 07:08:35;;;;;;;1.48;1.38;;;;;;;;;;5865485;28;20604;-71
2024/03/18 07:11:25;;;;;;;1.58;1.10;;;;;;;;;;5865328;28;20057;-71
2024/03/18 07:14:15;;;;;;;4.30;1.17;;;;;;;;;;5865312;28;20053;-71
2024/03/18 07:17:04;;;;;;;0.50;0.50;;;;;;;;;;5848812;28;20049;-71
2024/03/18 07:19:54;;;;;;;3.15;1.15;;;;;;;;;;5865522;28;20460;-70
2024/03/18 07:22:44;;;;;;;1.45;1.35;;;;;;;;;;5848666;28;20589;-71
2024/03/18 07:25:34;;;;;;;3.50;2.03;;;;;;;;;;5865137;28;20045;-71
2024/03/18 07:28:23;;;;;;;3.72;1.45;;;;;;;;;;5864923;28;20045;-71
2024/03/18 07:31:14;;;;;;;1.20;1.10;;;;;;;;;;5848654;28;20077;-71
2024/03/18 07:34:03;;;;;;;1.00;1.00;;;;;;;;;;5864986;28;20057;-71
2024/03/18 07:36:55;;;;;;;0.50;0.47;;;;;;;;;;5865133;28;20045;-71
2024/03/18 07:39:45;;;;;;;1.33;0.63;;;;;;;;;;5864598;28;20049;-71
2024/03/18 07:42:35;;;;;;;0.93;0.93;;;;;;;;;;5864817;28;20574;-70
2024/03/18 07:45:25;;;;;;;2.58;0.60;;;;;;;;;;5848209;28;20077;-71
2024/03/18 07:48:15;;;;;;;1.38;1.27;;;;;;;;;;5864690;28;20057;-71
2024/03/18 07:51:08;;;;;;;2.70;2.13;;;;;;;;;;5864695;28;20073;-71
2024/03/18 07:53:58;;;;;;;0.70;0.70;;;;;;;;;;5841847;28;20053;-71
2024/03/18 07:56:48;;;;;;;1.70;1.60;;;;;;;;;;5864327;28;20506;-70
2024/03/18 07:59:38;;;;;;;2.53;1.25;;;;;;;;;;5864061;28;20396;-71
2024/03/18 08:02:28;;;;;;;1.70;0.93;;;;;;;;;;5847785;28;20699;-71
2024/03/18 08:05:17;;;;;;;2.08;0.82;;;;;;;;;;5863588;28;20488;-71
2024/03/18 08:08:08;;;;;;;1.02;0.80;;;;;;;;;;5847954;28;20072;-70
2024/03/18 08:10:57;;;;;;;0.95;0.93;;;;;;;;;;5864787;28;20045;-71
2024/03/18 08:13:47;;;;;;;1.10;0.90;;;;;;;;;;5848020;28;20087;-70
2024/03/18 08:16:37;;;;;;;0.68;0.68;;;;;;;;;;5847737;28;20064;-71
2024/03/18 08:19:27;;;;;;;0.60;0.60;;;;;;;;;;5847427;28;20103;-71
2024/03/18 08:22:16;;;;;;;2.42;1.98;;;;;;;;;;5848013;28;20503;-71
2024/03/18 08:25:08;;;;;;;3.83;1.27;;;;;;;;;;5865383;28;20076;-71
2024/03/18 08:28:00;;;;;;;1.10;0.90;;;;;;;;;;5848337;28;20056;-71
2024/03/18 08:31:05;;;;;;;4.75;1.65;;;;;;;;;;5861776;28;20564;-71
2024/03/18 08:33:55;;;;;;;1.38;0.95;;;;;;;;;;5866020;28;20107;-70
2024/03/18 08:36:45;;;;;;;0.80;0.70;;;;;;;;;;5859546;28;20048;-71
2024/03/18 08:39:35;;;;;;;1.13;1.02;;;;;;;;;;5865193;28;20053;-71
2024/03/18 08:42:25;;;;;;;0.52;0.50;;;;;;;;;;5863283;28;20103;-71
2024/03/18 08:45:14;;;;;;;1.02;0.85;;;;;;;;;;5863501;28;20060;-71
2024/03/18 08:48:05;;;;;;;0.85;0.85;;;;;;;;;;5863434;28;20046;-71
2024/03/18 08:50:55;;;;;;;1.45;1.35;;;;;;;;;;5864176;28;20045;-70
2024/03/18 08:53:44;;;;;;;1.40;1.10;;;;;;;;;;5863323;28;20056;-70
2024/03/18 08:56:34;;;;;;;0.98;0.98;;;;;;;;;;5863418;28;20042;-70
2024/03/18 08:59:24;;;;;;;0.75;0.75;;;;;;;;;;5863314;28;20068;-70
2024/03/18 09:02:14;;;;;;;0.77;0.77;;;;;;;;;;5846777;28;20081;-70
2024/03/18 09:05:04;;;;;;;3.95;1.73;;;;;;;;;;5846451;28;20119;-70
2024/03/18 09:07:54;;;;;;;3.88;2.58;;;;;;;;;;5863776;28;20046;-70
2024/03/18 09:10:44;;;;;;;1.75;1.55;;;;;;;;;;5863051;28;20449;-70
2024/03/18 09:13:34;;;;;;;1.20;1.10;;;;;;;;;;5862896;28;20531;-70
2024/03/18 09:16:24;;;;;;;1.08;0.98;;;;;;;;;;5862706;28;20071;-70
2024/03/18 09:19:13;;;;;;;2.17;1.42;;;;;;;;;;5844899;28;20103;-70
2024/03/18 09:22:03;;;;;;;0.88;0.75;;;;;;;;;;5862787;28;20431;-70
2024/03/18 09:24:53;;;;;;;0.82;0.82;;;;;;;;;;5862782;28;20463;-70
2024/03/18 09:27:43;;;;;;;1.92;1.77;;;;;;;;;;5862632;28;20152;-70
2024/03/18 09:30:33;;;;;;;1.10;1.00;;;;;;;;;;5862407;28;20042;-70
2024/03/18 09:33:23;;;;;;;1.20;1.17;;;;;;;;;;5862399;28;20053;-70
2024/03/18 09:36:13;;;;;;;4.13;2.30;;;;;;;;;;5862327;28;20107;-71
2024/03/18 09:39:02;;;;;;;1.80;1.58;;;;;;;;;;5862117;28;20095;-71
2024/03/18 09:41:53;;;;;;;3.15;2.80;;;;;;;;;;5846487;28;20053;-71
2024/03/18 09:44:44;;;;;;;2.70;2.20;;;;;;;;;;5845720;28;20055;-70
2024/03/18 09:47:35;;;;;;;3.53;2.08;;;;;;;;;;5861915;28;20049;-71
2024/03/18 09:50:25;;;;;;;0.95;0.95;;;;;;;;;;5861875;28;20052;-71
2024/03/18 09:53:15;;;;;;;2.38;1.42;;;;;;;;;;5827426;28;20046;-70
2024/03/18 09:56:09;;;;;;;2.20;1.77;;;;;;;;;;5822604;28;20156;-71
2024/03/18 09:58:58;;;;;;;2.50;2.25;;;;;;;;;;5839199;28;20046;-69
2024/03/18 10:01:48;;;;;;;5.80;2.33;;;;;;;;;;5838720;28;20046;-69
2024/03/18 10:04:38;;;;;;;7.38;1.83;;;;;;;;;;5838482;28;20513;-70
2024/03/18 10:07:28;;;;;;;4.55;2.38;;;;;;;;;;5838680;28;20046;-71
2024/03/18 10:10:21;;;;;;;1.85;1.67;;;;;;;;;;5838509;28;20053;-71
2024/03/18 10:13:12;;;;;;;4.53;1.95;;;;;;;;;;5822078;28;20056;-70
2024/03/18 10:16:02;;;;;;;8.15;1.95;;;;;;;;;;5838530;28;20041;-71
2024/03/18 10:18:52;;;;;;;0.95;0.93;;;;;;;;;;5822394;28;20050;-71
2024/03/18 10:21:42;;;;;;;3.10;2.67;;;;;;;;;;5838357;28;20037;-71
2024/03/18 10:24:32;;;;;;;1.20;1.10;;;;;;;;;;5838212;28;20051;-71
2024/03/18 10:27:22;;;;;;;2.13;1.15;;;;;;;;;;5838198;28;20046;-70
2024/03/18 10:30:13;;;;;;;1.20;0.75;;;;;;;;;;5837806;28;20108;-71
2024/03/18 10:33:06;;;;;;;0.50;0.50;;;;;;;;;;5838041;28;20100;-71
2024/03/18 10:35:58;;;;;;;0.60;0.60;;;;;;;;;;5838503;28;20050;-71
2024/03/18 10:39:22;;;;;;;0.60;0.60;;;;;;;;;;5837882;28;20056;-71
2024/03/18 10:42:18;;;;;;;3.20;0.80;;;;;;;;;;5853393;28;20529;-71
2024/03/18 10:45:18;;;;;;;0.75;0.50;;;;;;;;;;5861359;28;20504;-70
2024/03/18 10:48:13;;;;;;;2.92;1.55;;;;;;;;;;5861027;28;20068;-72
2024/03/18 10:51:05;;;;;;;2.17;1.17;;;;;;;;;;5860939;28;20049;-71
2024/03/18 10:53:56;;;;;;;2.00;1.00;;;;;;;;;;5861677;28;20168;-71
2024/03/18 10:56:47;;;;;;;2.25;1.08;;;;;;;;;;5844510;28;20045;-71
2024/03/18 10:59:38;;;;;;;2.92;0.98;;;;;;;;;;5860640;28;20045;-70
2024/03/18 11:02:29;;;;;;;0.85;0.82;;;;;;;;;;5860952;28;20438;-70
2024/03/18 11:05:35;;;;;;;1.58;1.42;;;;;;;;;;5860658;28;20052;-71
2024/03/18 11:08:26;;;;;;;2.10;1.85;;;;;;;;;;5860751;28;20048;-71
2024/03/18 11:11:16;;;;;;;8.95;6.13;;;;;;;;;;5860845;28;20045;-71
2024/03/18 11:14:11;;;;;;;0.85;0.82;;;;;;;;;;5860656;28;20100;-71
2024/03/18 11:17:06;;;;;;;1.20;1.15;;;;;;;;;;5860776;28;20049;-72
2024/03/18 11:19:59;;;;;;;2.80;1.05;;;;;;;;;;5861082;28;20045;-71
2024/03/18 11:22:57;;;;;;;1.48;1.20;;;;;;;;;;5860807;28;20092;-71
2024/03/18 11:26:04;;;;;;;8.88;2.05;;;;;;;;;;5860556;28;20053;-71
2024/03/18 11:29:07;;;;;;;4.32;1.15;;;;;;;;;;5860881;28;20049;-71
2024/03/18 11:32:00;;;;;;;1.20;0.73;;;;;;;;;;5830385;28;20057;-71
2024/03/18 11:34:59;;;;;;;0.70;0.70;;;;;;;;;;5852474;28;20041;-71
2024/03/18 11:37:48;;;;;;;1.17;0.70;;;;;;;;;;5860182;28;20103;-71
2024/03/18 11:40:39;;;;;;;0.80;0.75;;;;;;;;;;5860884;28;20053;-71
2024/03/18 11:43:33;;;;;;;10.90;1.13;;;;;;;;;;5864389;28;20092;-71
2024/03/18 11:46:22;;;;;;;2.15;1.45;;;;;;;;;;5864586;28;20049;-71
2024/03/18 11:49:17;;;;;;;1.05;1.00;;;;;;;;;;5864423;28;20056;-71
2024/03/18 11:52:11;;;;;;;1.17;1.08;;;;;;;;;;5864841;28;20388;-71
2024/03/18 11:55:04;;;;;;;1.75;1.38;;;;;;;;;;5864725;28;20054;-71
2024/03/18 11:57:56;;;;;;;1.10;1.00;;;;;;;;;;5865157;28;20049;-71
2024/03/18 12:00:47;;;;;;;2.70;2.03;;;;;;;;;;5847820;28;20099;-71
2024/03/18 12:03:37;;;;;;;6.35;2.17;;;;;;;;;;5863952;28;20488;-71
2024/03/18 12:06:29;;;;;;;1.27;0.95;;;;;;;;;;5864094;28;20410;-71
2024/03/18 12:09:22;;;;;;;1.75;1.13;;;;;;;;;;5864134;28;20038;-71
2024/03/18 12:12:12;;;;;;;4.00;2.67;;;;;;;;;;5847788;28;20411;-71
2024/03/18 12:15:04;;;;;;;1.17;1.08;;;;;;;;;;5864047;28;20053;-72
2024/03/18 12:17:54;;;;;;;1.80;1.67;;;;;;;;;;5864376;28;20053;-71
2024/03/18 12:20:44;;;;;;;2.90;1.67;;;;;;;;;;5863511;28;20053;-71
2024/03/18 12:29:52;;;;;;;1.00;0.85;;;;;;;;;;5863768;28;20126;-71
2024/03/18 12:32:42;;;;;;;1.38;1.27;;;;;;;;;;5863683;28;20045;-70
2024/03/18 12:35:32;;;;;;;2.10;1.90;;;;;;;;;;5865698;28;20095;-71
2024/03/18 12:38:26;;;;;;;1.45;1.33;;;;;;;;;;5863489;28;20048;-71
2024/03/18 12:41:18;;;;;;;2.72;1.58;;;;;;;;;;5847521;28;20056;-71
2024/03/18 12:44:08;;;;;;;12.18;5.75;;;;;;;;;;5863442;28;20049;-71
2024/03/18 12:46:58;;;;;;;3.95;1.45;;;;;;;;;;5863669;28;20060;-71
2024/03/18 12:49:48;;;;;;;3.70;3.15;;;;;;;;;;5846624;28;20080;-71
2024/03/18 12:52:37;;;;;;;1.30;1.20;;;;;;;;;;5863059;28;20049;-71
2024/03/18 12:55:30;;;;;;;2.83;1.58;;;;;;;;;;5863048;28;20064;-71
2024/03/18 12:58:20;;;;;;;2.58;2.33;;;;;;;;;;5846565;28;20515;-71
2024/03/18 13:01:13;;;;;;;4.22;2.10;;;;;;;;;;5846542;28;20076;-71
2024/03/18 13:04:02;;;;;;;2.47;1.83;;;;;;;;;;5863019;28;20488;-71
2024/03/18 13:06:53;;;;;;;4.32;1.60;;;;;;;;;;5863146;28;20663;-70
2024/03/18 13:09:47;;;;;;;1.95;1.70;;;;;;;;;;5862779;28;20091;-70
2024/03/18 13:12:37;;;;;;;1.40;1.30;;;;;;;;;;5834406;28;20489;-70
2024/03/18 13:15:27;;;;;;;2.65;2.25;;;;;;;;;;5819687;28;20417;-71
2024/03/18 13:18:17;;;;;;;1.50;1.38;;;;;;;;;;5862670;28;20084;-70
2024/03/18 13:21:11;;;;;;;1.42;1.13;;;;;;;;;;5830745;28;20495;-70
2024/03/18 13:24:01;;;;;;;1.95;1.52;;;;;;;;;;5846378;28;20049;-71
2024/03/18 13:26:52;;;;;;;4.05;2.13;;;;;;;;;;5808039;28;20049;-70
2024/03/18 13:29:42;;;;;;;6.55;2.95;;;;;;;;;;5823885;28;20049;-70
2024/03/18 13:32:32;;;;;;;2.83;1.80;;;;;;;;;;5840300;28;20062;-70
2024/03/18 13:35:24;;;;;;;4.38;1.60;;;;;;;;;;5851060;28;20045;-70
2024/03/18 13:38:14;;;;;;;3.97;2.50;;;;;;;;;;5843840;28;20470;-70
2024/03/18 13:41:05;;;;;;;5.50;4.30;;;;;;;;;;5823255;28;20103;-71
2024/03/18 13:43:55;;;;;;;5.20;3.30;;;;;;;;;;5822923;28;20463;-71
2024/03/18 13:46:45;;;;;;;2.85;1.95;;;;;;;;;;5855636;28;20049;-71
2024/03/18 13:49:35;;;;;;;1.85;1.70;;;;;;;;;;5823409;28;20395;-71
2024/03/18 13:52:25;;;;;;;2.25;1.88;;;;;;;;;;5843011;28;20037;-71
2024/03/18 13:55:15;;;;;;;6.18;1.90;;;;;;;;;;5830487;28;20049;-71
2024/03/18 13:58:07;;;;;;;2.42;1.80;;;;;;;;;;5846121;28;20589;-71
2024/03/18 14:00:57;;;;;;;2.17;1.60;;;;;;;;;;5839396;28;20503;-71
2024/03/18 14:03:47;;;;;;;1.77;1.55;;;;;;;;;;5829057;28;20082;-71
2024/03/18 14:06:37;;;;;;;1.33;1.23;;;;;;;;;;5856434;28;20505;-71
2024/03/18 14:09:29;;;;;;;2.35;1.95;;;;;;;;;;5822876;28;20041;-71
2024/03/18 14:12:22;;;;;;;1.17;1.02;;;;;;;;;;5841897;28;20045;-71
2024/03/18 14:15:12;;;;;;;2.65;1.75;;;;;;;;;;5829390;28;20111;-71
2024/03/18 14:18:02;;;;;;;1.48;1.35;;;;;;;;;;5845154;28;20046;-71
2024/03/18 14:20:52;;;;;;;0.52;0.52;;;;;;;;;;5861596;28;20049;-71
2024/03/18 14:23:43;;;;;;;1.60;1.50;;;;;;;;;;5844921;28;20049;-70
2024/03/18 14:26:34;;;;;;;1.02;0.85;;;;;;;;;;5861605;28;20388;-71
2024/03/18 14:29:25;;;;;;;7.75;4.35;;;;;;;;;;5828661;28;20444;-71
2024/03/18 14:32:16;;;;;;;4.15;3.00;;;;;;;;;;5828378;28;20057;-72
2024/03/18 14:35:08;;;;;;;2.78;2.53;;;;;;;;;;5861525;28;20050;-71
2024/03/18 14:37:58;;;;;;;1.45;1.35;;;;;;;;;;5861343;28;20049;-71
2024/03/18 14:40:48;;;;;;;1.92;1.58;;;;;;;;;;5843701;28;20073;-71
2024/03/18 14:43:37;;;;;;;1.65;1.40;;;;;;;;;;5844559;28;20063;-71
2024/03/18 14:46:27;;;;;;;4.78;4.03;;;;;;;;;;5860967;28;20054;-71
2024/03/18 14:49:17;;;;;;;5.47;3.53;;;;;;;;;;5860963;28;20083;-71
2024/03/18 14:52:10;;;;;;;3.92;2.28;;;;;;;;;;5860514;28;20045;-71
2024/03/18 14:55:00;;;;;;;1.88;1.70;;;;;;;;;;5844565;28;20045;-71
2024/03/18 14:57:49;;;;;;;12.43;9.18;;;;;;;;;;5828162;28;20116;-71
2024/03/18 15:00:40;;;;;;;14.27;8.82;;;;;;;;;;5843881;28;20052;-71
2024/03/18 15:03:30;;;;;;;8.43;3.80;;;;;;;;;;5860577;28;20041;-71
2024/03/18 15:06:20;;;;;;;3.70;3.10;;;;;;;;;;5844513;28;20095;-71
2024/03/18 15:09:09;;;;;;;3.33;1.65;;;;;;;;;;5844320;28;20392;-71
2024/03/18 15:11:59;;;;;;;2.95;2.30;;;;;;;;;;5861105;28;20068;-71
2024/03/18 15:14:49;;;;;;;2.63;1.48;;;;;;;;;;5861301;28;20507;-71
2024/03/18 15:17:54;;;;;;;4.43;4.03;;;;;;;;;;5848733;28;20057;-71
2024/03/18 15:20:43;;;;;;;6.78;3.45;;;;;;;;;;5832387;28;20041;-71
2024/03/18 15:29:54;;;;;;;3.83;2.10;;;;;;;;;;5865171;28;20400;-71
2024/03/18 15:32:44;;;;;;;3.15;2.63;;;;;;;;;;5832226;28;20095;-71
2024/03/18 15:35:34;;;;;;;14.18;8.40;;;;;;;;;;5864632;28;20103;-71
2024/03/18 15:38:24;;;;;;;24.48;14.60;;;;;;;;;;5831959;28;20049;-71
2024/03/18 15:41:14;;;;;;;15.93;3.50;;;;;;;;;;5848210;28;20104;-72
2024/03/18 15:44:06;;;;;;;4.50;3.70;;;;;;;;;;5848014;28;20504;-71
2024/03/18 15:46:56;;;;;;;4.63;3.55;;;;;;;;;;5848671;28;20437;-70
2024/03/18 15:49:47;;;;;;;6.75;5.60;;;;;;;;;;5864285;28;20072;-71
2024/03/18 15:52:37;;;;;;;17.58;8.88;;;;;;;;;;5831722;28;20045;-71
2024/03/18 15:55:26;;;;;;;21.10;12.65;;;;;;;;;;5864293;28;20033;-71
2024/03/18 15:58:16;;;;;;;16.30;6.75;;;;;;;;;;5847983;28;20053;-71
2024/03/18 16:01:06;;;;;;;14.88;7.07;;;;;;;;;;5864016;28;20049;-71
2024/03/18 16:03:56;;;;;;;8.73;5.28;;;;;;;;;;5832006;28;20045;-71
2024/03/18 16:06:46;;;;;;;13.85;6.05;;;;;;;;;;5831382;28;20514;-71
2024/03/18 16:09:36;;;;;;;13.20;5.85;;;;;;;;;;5847677;28;20041;-71
2024/03/18 16:12:26;;;;;;;17.02;9.35;;;;;;;;;;5864131;28;20048;-71
2024/03/18 16:15:15;;;;;;;11.65;3.63;;;;;;;;;;5847504;28;20507;-71
2024/03/18 16:18:06;;;;;;;9.75;6.47;;;;;;;;;;5847633;28;20049;-71
2024/03/18 16:20:56;;;;;;;9.43;4.63;;;;;;;;;;5863946;28;20080;-71
2024/03/18 16:23:46;;;;;;;3.80;2.72;;;;;;;;;;5847451;28;20068;-71
2024/03/18 16:26:36;;;;;;;3.63;3.05;;;;;;;;;;5846482;28;20045;-71
2024/03/18 16:29:27;;;;;;;1.52;1.42;;;;;;;;;;5847074;28;20048;-71
2024/03/18 16:32:17;;;;;;;2.72;2.22;;;;;;;;;;5847220;28;20061;-71
2024/03/18 16:35:07;;;;;;;2.80;2.35;;;;;;;;;;5830852;28;20507;-71
2024/03/18 16:37:57;;;;;;;5.28;3.42;;;;;;;;;;5831021;28;20049;-71
2024/03/18 16:40:47;;;;;;;3.67;2.88;;;;;;;;;;5880111;28;20053;-71
2024/03/18 16:43:37;;;;;;;4.50;2.50;;;;;;;;;;5863399;28;20047;-71
2024/03/18 16:46:27;;;;;;;1.13;0.93;;;;;;;;;;5863124;28;20048;-71
2024/03/18 16:49:17;;;;;;;1.35;1.25;;;;;;;;;;5830550;28;20046;-71
2024/03/18 16:52:07;;;;;;;1.55;1.45;;;;;;;;;;5846297;28;20419;-71
2024/03/18 16:54:57;;;;;;;8.18;3.80;;;;;;;;;;5830783;28;20049;-71
2024/03/18 16:57:47;;;;;;;9.07;4.15;;;;;;;;;;5846475;28;20073;-71
2024/03/18 17:00:40;;;;;;;4.32;3.95;;;;;;;;;;5829815;28;20042;-71
2024/03/18 17:03:30;;;;;;;3.30;2.13;;;;;;;;;;5846274;28;20467;-71
2024/03/18 17:06:19;;;;;;;1.83;1.38;;;;;;;;;;5846278;28;20458;-71
2024/03/18 17:09:10;;;;;;;5.18;2.60;;;;;;;;;;5862558;28;20041;-71
2024/03/18 17:11:59;;;;;;;6.30;4.47;;;;;;;;;;5862956;28;20049;-71
2024/03/18 17:14:50;;;;;;;15.23;9.48;;;;;;;;;;5862504;28;20049;-71
2024/03/18 17:17:40;;;;;;;8.73;6.35;;;;;;;;;;5846025;28;20041;-71